Terminal Aerodrome Forecast
Issued by NWS

Home | Current Version | Previous Version | Text Only | Print | Product List | Glossary On
Versions: 1 2 3 4 5 6 7 8 9 10 11 12 13 14 15
000
FTUS45 KFGZ 281100 RRA
TAFSEZ
TAF
KSEZ 281144Z 2812/0112 19013G22KT P6SM VCSH BKN020 OVC030
      TEMPO 2812/2816 -SHRA OVC012
     FM281700 20015G25KT 4SM -SHRA BR SCT015 OVC035
     FM010130 24014KT P6SM VCSH SCT020 BKN035=

USA.gov is the U.S. government's official web portal to all federal, state and local government web resources and services.